Time;durP1;ratioP1;P1;durP2;ratioP2;P2;SDS_P1;SDS_P2;PMS_P1;PMS_P2;Temp;Humidity;BMP_temperature;BMP_pressure;BME280_temperature;BME280_humidity;BME280_pressure;Samples;Min_cycle;Max_cycle;Signal;HPM_P1;HPM_P2
2022/11/07 00:01:38;;;;;;;12.63;5.32;;;;;;;;;;5109298;28;20096;-73
2022/11/07 00:04:04;;;;;;;11.75;5.45;;;;;;;;;;5109958;28;20049;-72
2022/11/07 00:06:30;;;;;;;10.05;5.30;;;;;;;;;;5109929;27;20079;-72
2022/11/07 00:08:57;;;;;;;10.75;4.80;;;;;;;;;;5111276;28;20043;-73
2022/11/07 00:11:23;;;;;;;11.07;4.88;;;;;;;;;;5095190;28;20104;-72
2022/11/07 00:13:49;;;;;;;11.73;5.10;;;;;;;;;;5075523;28;20044;-72
2022/11/07 00:16:15;;;;;;;10.77;5.13;;;;;;;;;;5110985;27;20035;-72
2022/11/07 00:18:41;;;;;;;12.65;5.18;;;;;;;;;;5094917;27;20047;-72
2022/11/07 00:21:09;;;;;;;13.75;5.10;;;;;;;;;;5113232;28;20493;-73
2022/11/07 00:23:35;;;;;;;10.90;4.82;;;;;;;;;;5112285;28;20119;-72
2022/11/07 00:26:05;;;;;;;11.98;5.57;;;;;;;;;;5110610;28;20063;-72
2022/11/07 00:28:38;;;;;;;14.07;5.00;;;;;;;;;;5110861;28;20040;-71
2022/11/07 00:31:05;;;;;;;11.60;5.10;;;;;;;;;;5111804;27;20406;-72
2022/11/07 00:33:31;;;;;;;13.38;4.85;;;;;;;;;;5112897;28;20545;-72
2022/11/07 00:35:57;;;;;;;9.43;4.50;;;;;;;;;;5094156;28;20135;-72
2022/11/07 00:38:23;;;;;;;12.07;4.50;;;;;;;;;;5111687;28;20043;-72
2022/11/07 00:40:59;;;;;;;14.13;4.82;;;;;;;;;;5111175;27;20039;-73
2022/11/07 00:43:25;;;;;;;12.30;5.05;;;;;;;;;;5111760;28;20477;-72
2022/11/07 00:45:51;;;;;;;10.05;4.30;;;;;;;;;;5110156;28;20401;-72
2022/11/07 00:48:18;;;;;;;12.60;4.75;;;;;;;;;;5109777;28;20046;-71
2022/11/07 00:50:44;;;;;;;14.98;4.93;;;;;;;;;;5093479;28;20035;-73
2022/11/07 00:53:10;;;;;;;13.63;4.68;;;;;;;;;;5111416;28;20079;-72
2022/11/07 00:55:36;;;;;;;14.65;4.70;;;;;;;;;;5110962;28;20090;-72
2022/11/07 00:58:02;;;;;;;13.77;5.00;;;;;;;;;;5095236;28;20048;-72
2022/11/07 01:00:28;;;;;;;10.60;4.05;;;;;;;;;;5109295;28;20366;-72
2022/11/07 01:05:39;;;;;;;14.63;4.50;;;;;;;;;;5113012;28;20059;-72
2022/11/07 01:08:05;;;;;;;15.15;4.80;;;;;;;;;;5112005;28;20043;-71
2022/11/07 01:10:31;;;;;;;11.38;4.63;;;;;;;;;;5111305;28;20047;-72
2022/11/07 01:12:57;;;;;;;13.40;4.72;;;;;;;;;;5107961;28;20065;-71
2022/11/07 01:15:23;;;;;;;11.32;4.68;;;;;;;;;;5106782;28;20401;-72
2022/11/07 01:17:49;;;;;;;11.30;4.75;;;;;;;;;;5109015;28;20036;-73
2022/11/07 01:20:15;;;;;;;11.27;4.15;;;;;;;;;;5090884;28;20051;-73
2022/11/07 01:22:41;;;;;;;16.40;4.78;;;;;;;;;;5091933;28;20050;-74
2022/11/07 01:25:07;;;;;;;14.77;4.65;;;;;;;;;;5112758;28;20052;-74
2022/11/07 01:27:33;;;;;;;13.88;4.65;;;;;;;;;;5112791;28;20387;-72
2022/11/07 01:29:59;;;;;;;13.30;4.47;;;;;;;;;;5111060;28;20096;-74
2022/11/07 01:32:25;;;;;;;12.23;4.10;;;;;;;;;;5112126;28;20053;-73
2022/11/07 01:34:51;;;;;;;13.48;4.93;;;;;;;;;;5112804;28;20496;-73
2022/11/07 01:37:17;;;;;;;14.02;4.32;;;;;;;;;;5111082;28;20051;-72
2022/11/07 01:39:43;;;;;;;10.43;4.30;;;;;;;;;;5111751;28;20042;-73
2022/11/07 01:42:10;;;;;;;11.45;4.15;;;;;;;;;;5111882;28;20035;-73
2022/11/07 01:44:36;;;;;;;12.38;4.45;;;;;;;;;;5109438;28;20382;-73
2022/11/07 01:47:02;;;;;;;12.35;4.10;;;;;;;;;;5108865;28;20046;-73
2022/11/07 01:49:30;;;;;;;14.00;3.97;;;;;;;;;;5109289;28;20040;-73
2022/11/07 01:52:07;;;;;;;11.68;4.13;;;;;;;;;;5106477;28;20059;-72
2022/11/07 01:54:35;;;;;;;12.98;4.03;;;;;;;;;;5112250;28;20048;-73
2022/11/07 01:57:11;;;;;;;10.38;4.28;;;;;;;;;;5092527;28;20042;-73
2022/11/07 01:59:37;;;;;;;12.85;4.20;;;;;;;;;;5110269;28;20164;-73
2022/11/07 02:02:03;;;;;;;10.18;4.00;;;;;;;;;;5108617;28;20051;-73
2022/11/07 02:04:30;;;;;;;9.05;3.50;;;;;;;;;;5111977;28;20052;-73
2022/11/07 02:07:00;;;;;;;12.27;4.18;;;;;;;;;;5111061;28;20044;-73
2022/11/07 02:09:26;;;;;;;11.38;4.10;;;;;;;;;;5110286;28;20031;-73
2022/11/07 02:11:52;;;;;;;11.45;4.30;;;;;;;;;;5111722;28;20036;-73
2022/11/07 02:14:18;;;;;;;11.30;3.90;;;;;;;;;;5109257;28;20485;-73
2022/11/07 02:16:45;;;;;;;12.93;3.83;;;;;;;;;;5106146;28;20043;-73
2022/11/07 02:19:20;;;;;;;13.98;3.90;;;;;;;;;;5113083;28;20550;-73
2022/11/07 02:21:49;;;;;;;10.90;3.83;;;;;;;;;;5115709;28;20067;-73
2022/11/07 02:24:29;;;;;;;15.80;4.10;;;;;;;;;;5111093;28;20047;-72
2022/11/07 02:26:56;;;;;;;16.25;3.65;;;;;;;;;;5103260;28;20035;-73
2022/11/07 02:29:22;;;;;;;11.88;3.92;;;;;;;;;;5111280;28;20039;-72
2022/11/07 02:31:59;;;;;;;12.45;3.80;;;;;;;;;;5096455;28;20086;-73
2022/11/07 02:34:25;;;;;;;15.95;4.20;;;;;;;;;;5114953;28;20138;-73
2022/11/07 02:36:51;;;;;;;12.75;4.00;;;;;;;;;;5113231;28;20541;-73
2022/11/07 02:39:17;;;;;;;14.32;4.13;;;;;;;;;;5114414;28;20047;-73
2022/11/07 02:41:43;;;;;;;13.15;4.13;;;;;;;;;;5097102;28;20078;-73
2022/11/07 02:44:10;;;;;;;13.27;3.78;;;;;;;;;;5114131;28;20134;-73
2022/11/07 02:46:36;;;;;;;11.68;4.07;;;;;;;;;;5113112;28;20047;-73
2022/11/07 02:49:03;;;;;;;15.38;4.20;;;;;;;;;;5111700;28;20043;-72
2022/11/07 02:51:29;;;;;;;16.45;3.55;;;;;;;;;;5113117;28;20039;-73
2022/11/07 02:53:55;;;;;;;15.57;3.80;;;;;;;;;;5115788;28;20040;-73
2022/11/07 02:56:22;;;;;;;16.33;4.80;;;;;;;;;;5109997;28;20043;-73
2022/11/07 02:58:48;;;;;;;9.95;3.72;;;;;;;;;;5114829;28;20130;-72
2022/11/07 03:01:14;;;;;;;10.15;3.83;;;;;;;;;;5090681;28;20498;-73
2022/11/07 03:03:41;;;;;;;12.88;3.97;;;;;;;;;;5093542;28;20417;-72
2022/11/07 03:06:09;;;;;;;15.27;4.45;;;;;;;;;;5094572;28;20075;-72
2022/11/07 03:08:35;;;;;;;13.85;4.20;;;;;;;;;;5092187;28;20039;-73
2022/11/07 03:11:01;;;;;;;10.55;3.95;;;;;;;;;;5094367;28;20071;-73
2022/11/07 03:13:27;;;;;;;15.07;3.80;;;;;;;;;;5091583;28;20036;-73
2022/11/07 03:15:54;;;;;;;13.07;3.95;;;;;;;;;;5093157;28;20090;-73
2022/11/07 03:18:21;;;;;;;14.52;4.43;;;;;;;;;;5092615;28;20105;-73
2022/11/07 03:20:47;;;;;;;19.58;4.60;;;;;;;;;;5092686;28;20506;-73
2022/11/07 03:23:13;;;;;;;13.07;3.90;;;;;;;;;;5093901;28;20386;-73
2022/11/07 03:25:39;;;;;;;12.68;3.80;;;;;;;;;;5091272;28;20047;-72
2022/11/07 03:28:05;;;;;;;10.73;4.05;;;;;;;;;;5093219;28;20036;-73
2022/11/07 03:30:31;;;;;;;12.80;4.05;;;;;;;;;;5092672;28;20448;-72
2022/11/07 03:32:57;;;;;;;15.15;4.00;;;;;;;;;;5094182;28;20040;-72
2022/11/07 03:35:23;;;;;;;13.70;4.35;;;;;;;;;;5092345;28;20044;-73
2022/11/07 03:37:49;;;;;;;14.80;4.57;;;;;;;;;;5092575;28;20098;-73
2022/11/07 03:40:15;;;;;;;13.98;4.00;;;;;;;;;;5094321;28;20444;-73
2022/11/07 03:42:42;;;;;;;9.57;4.30;;;;;;;;;;5092024;28;20044;-72
2022/11/07 03:45:09;;;;;;;16.17;4.28;;;;;;;;;;5094229;28;20124;-73
2022/11/07 03:47:35;;;;;;;14.32;4.25;;;;;;;;;;5089965;28;20056;-73
2022/11/07 03:50:02;;;;;;;12.02;4.03;;;;;;;;;;5089202;28;20402;-73
2022/11/07 03:52:28;;;;;;;12.40;4.38;;;;;;;;;;5089384;28;20037;-73
2022/11/07 03:54:54;;;;;;;13.20;4.32;;;;;;;;;;5088506;28;20047;-72
2022/11/07 03:57:20;;;;;;;12.20;4.00;;;;;;;;;;5092050;28;20035;-72
2022/11/07 03:59:46;;;;;;;13.38;3.83;;;;;;;;;;5094492;28;20405;-73
2022/11/07 04:02:12;;;;;;;14.60;4.28;;;;;;;;;;5105309;28;20051;-73
2022/11/07 04:04:38;;;;;;;15.20;4.47;;;;;;;;;;5110443;28;20032;-73
2022/11/07 04:07:04;;;;;;;11.27;3.83;;;;;;;;;;5113840;28;20409;-73
2022/11/07 04:09:30;;;;;;;18.15;4.60;;;;;;;;;;5095801;28;20046;-73
2022/11/07 04:17:27;;;;;;;15.48;4.10;;;;;;;;;;5112305;28;20047;-72
2022/11/07 04:19:55;;;;;;;13.55;4.10;;;;;;;;;;5094136;28;20040;-73
2022/11/07 04:22:22;;;;;;;16.50;3.70;;;;;;;;;;5108606;28;20498;-72
2022/11/07 04:24:48;;;;;;;16.35;4.30;;;;;;;;;;5111200;28;20078;-73
2022/11/07 04:30:17;;;;;;;14.48;3.90;;;;;;;;;;5113211;28;20044;-73
2022/11/07 04:32:44;;;;;;;13.75;3.67;;;;;;;;;;5113150;28;20047;-72
2022/11/07 04:35:10;;;;;;;18.15;4.10;;;;;;;;;;5111798;28;20152;-73
2022/11/07 04:37:36;;;;;;;16.50;4.20;;;;;;;;;;5112764;28;20069;-71
2022/11/07 04:40:02;;;;;;;15.65;4.03;;;;;;;;;;5113800;28;20599;-72
2022/11/07 04:42:28;;;;;;;12.65;3.58;;;;;;;;;;5112284;28;20043;-72
2022/11/07 04:44:54;;;;;;;12.23;3.65;;;;;;;;;;5112491;28;20039;-73
2022/11/07 04:47:20;;;;;;;16.73;4.22;;;;;;;;;;5109930;28;20074;-73
2022/11/07 04:49:45;;;;;;;15.32;4.22;;;;;;;;;;5112777;28;20129;-73
2022/11/07 04:52:12;;;;;;;14.82;4.15;;;;;;;;;;5111662;28;20201;-73
2022/11/07 04:54:38;;;;;;;15.07;4.10;;;;;;;;;;5109152;28;20046;-73
2022/11/07 04:57:04;;;;;;;13.95;4.43;;;;;;;;;;5092907;28;20039;-73
2022/11/07 04:59:30;;;;;;;14.70;4.22;;;;;;;;;;5112601;28;20390;-73
2022/11/07 05:01:56;;;;;;;15.93;4.57;;;;;;;;;;5109618;28;20054;-72
2022/11/07 05:04:22;;;;;;;12.60;3.72;;;;;;;;;;5109757;28;20067;-73
2022/11/07 05:06:48;;;;;;;21.10;4.18;;;;;;;;;;5107070;28;20032;-72
2022/11/07 05:09:15;;;;;;;18.67;4.60;;;;;;;;;;5111264;28;20478;-73
2022/11/07 05:11:41;;;;;;;15.55;4.28;;;;;;;;;;5110680;28;20043;-72
2022/11/07 05:14:07;;;;;;;16.58;4.75;;;;;;;;;;5110650;28;20114;-73
2022/11/07 05:16:34;;;;;;;15.05;4.82;;;;;;;;;;5110312;28;20466;-73
2022/11/07 05:19:00;;;;;;;17.25;4.60;;;;;;;;;;5109513;28;20096;-72
2022/11/07 05:21:26;;;;;;;15.77;4.90;;;;;;;;;;5112309;28;20040;-73
2022/11/07 05:23:52;;;;;;;14.07;4.13;;;;;;;;;;5106395;28;20043;-73
2022/11/07 05:26:18;;;;;;;13.13;4.15;;;;;;;;;;5109142;28;20502;-72
2022/11/07 05:28:44;;;;;;;14.27;4.40;;;;;;;;;;5111299;28;20370;-72
2022/11/07 05:31:17;;;;;;;14.13;4.20;;;;;;;;;;5093362;28;20082;-72
2022/11/07 05:33:43;;;;;;;14.95;4.95;;;;;;;;;;5107944;28;20182;-72
2022/11/07 05:36:09;;;;;;;14.35;4.53;;;;;;;;;;5109164;28;20055;-72
2022/11/07 05:38:35;;;;;;;13.75;4.60;;;;;;;;;;5111505;28;20050;-73
2022/11/07 05:41:04;;;;;;;14.90;4.78;;;;;;;;;;5111348;28;20099;-72
2022/11/07 05:43:30;;;;;;;15.60;4.50;;;;;;;;;;5110286;28;20040;-73
2022/11/07 05:46:00;;;;;;;14.73;5.05;;;;;;;;;;5110586;28;20044;-73
2022/11/07 05:48:26;;;;;;;13.60;4.60;;;;;;;;;;5109496;28;20054;-73
2022/11/07 05:50:52;;;;;;;15.30;5.00;;;;;;;;;;5113956;28;20062;-73
2022/11/07 05:53:22;;;;;;;12.25;4.50;;;;;;;;;;5115325;28;20050;-72
2022/11/07 05:55:48;;;;;;;17.08;4.85;;;;;;;;;;5114969;28;20039;-73
2022/11/07 05:58:14;;;;;;;14.45;4.72;;;;;;;;;;5115286;28;20511;-73
2022/11/07 06:00:40;;;;;;;14.20;4.65;;;;;;;;;;5081636;28;20050;-72
2022/11/07 06:03:07;;;;;;;13.57;4.75;;;;;;;;;;5113623;28;20087;-73
2022/11/07 06:05:33;;;;;;;14.25;4.72;;;;;;;;;;5113130;28;20508;-73
2022/11/07 06:07:59;;;;;;;16.80;4.78;;;;;;;;;;5115224;28;20032;-73
2022/11/07 06:10:25;;;;;;;13.73;4.63;;;;;;;;;;5116402;28;20051;-73
2022/11/07 06:12:58;;;;;;;11.38;4.70;;;;;;;;;;5097499;28;20132;-73
2022/11/07 06:15:25;;;;;;;14.27;4.50;;;;;;;;;;5113098;28;20054;-73
2022/11/07 06:17:51;;;;;;;16.42;5.50;;;;;;;;;;5114084;28;20065;-73
2022/11/07 06:20:17;;;;;;;13.32;4.97;;;;;;;;;;5115481;28;20047;-72
2022/11/07 06:22:43;;;;;;;16.25;5.40;;;;;;;;;;5111788;28;20051;-72
2022/11/07 06:25:09;;;;;;;17.40;5.07;;;;;;;;;;5115821;28;20039;-72
2022/11/07 06:27:35;;;;;;;15.52;4.88;;;;;;;;;;5113793;28;20164;-72
2022/11/07 06:30:01;;;;;;;21.10;5.07;;;;;;;;;;5115118;28;20053;-73
2022/11/07 06:32:27;;;;;;;14.70;4.60;;;;;;;;;;5113522;28;20066;-73
2022/11/07 06:34:54;;;;;;;12.98;4.90;;;;;;;;;;5114265;28;20028;-73
2022/11/07 06:37:20;;;;;;;19.08;5.35;;;;;;;;;;5107108;28;20546;-72
2022/11/07 06:39:46;;;;;;;17.40;5.10;;;;;;;;;;5113597;28;20079;-73
2022/11/07 06:42:11;;;;;;;15.90;5.57;;;;;;;;;;5115426;28;20043;-72
2022/11/07 06:44:37;;;;;;;17.45;5.20;;;;;;;;;;5113842;28;20040;-72
2022/11/07 06:47:04;;;;;;;15.38;5.43;;;;;;;;;;5113038;28;20036;-73
2022/11/07 06:49:30;;;;;;;16.83;5.90;;;;;;;;;;5113904;28;20097;-73
2022/11/07 06:51:56;;;;;;;15.23;6.03;;;;;;;;;;5113294;28;20566;-72
2022/11/07 06:54:22;;;;;;;17.55;6.28;;;;;;;;;;5113216;28;20055;-73
2022/11/07 06:56:48;;;;;;;21.25;6.43;;;;;;;;;;5114514;28;20047;-73
2022/11/07 06:59:14;;;;;;;23.55;6.78;;;;;;;;;;5095921;28;20115;-72
2022/11/07 07:01:40;;;;;;;18.65;5.72;;;;;;;;;;5109560;28;20059;-72
2022/11/07 07:04:06;;;;;;;22.40;6.57;;;;;;;;;;5091478;28;20517;-74
2022/11/07 07:06:32;;;;;;;19.25;6.28;;;;;;;;;;5105606;28;20392;-73
2022/11/07 07:08:58;;;;;;;21.02;6.47;;;;;;;;;;5110900;28;20045;-72
2022/11/07 07:11:24;;;;;;;18.80;6.45;;;;;;;;;;5109935;28;20047;-72
2022/11/07 07:13:50;;;;;;;20.77;6.00;;;;;;;;;;5110569;28;20105;-74
2022/11/07 07:16:16;;;;;;;20.27;6.20;;;;;;;;;;5108272;28;20044;-73
2022/11/07 07:18:42;;;;;;;22.17;6.30;;;;;;;;;;5113370;28;20051;-73
2022/11/07 07:21:12;;;;;;;15.75;5.50;;;;;;;;;;5095054;28;20458;-73
2022/11/07 07:23:38;;;;;;;18.58;5.75;;;;;;;;;;5086173;28;20040;-73
2022/11/07 07:26:04;;;;;;;18.13;5.85;;;;;;;;;;5094133;28;20512;-73
2022/11/07 07:28:31;;;;;;;19.10;6.18;;;;;;;;;;5059714;28;20047;-73
2022/11/07 07:31:15;;;;;;;18.58;6.00;;;;;;;;;;5094067;28;20512;-72
2022/11/07 07:33:42;;;;;;;16.83;5.63;;;;;;;;;;5110085;28;20473;-73
2022/11/07 07:36:08;;;;;;;17.83;5.93;;;;;;;;;;5113780;28;20054;-73
2022/11/07 07:38:34;;;;;;;20.25;5.32;;;;;;;;;;5114728;28;20123;-73
2022/11/07 07:41:00;;;;;;;19.73;5.32;;;;;;;;;;5113051;28;20147;-73
2022/11/07 07:43:27;;;;;;;15.88;4.90;;;;;;;;;;5113195;28;20047;-72
2022/11/07 07:45:53;;;;;;;17.63;5.50;;;;;;;;;;5094656;28;20048;-72
2022/11/07 07:48:19;;;;;;;19.73;5.32;;;;;;;;;;5113840;28;20067;-72
2022/11/07 07:50:48;;;;;;;16.63;5.45;;;;;;;;;;5113739;28;20560;-73
2022/11/07 07:53:14;;;;;;;19.20;4.90;;;;;;;;;;5110999;28;20515;-72
2022/11/07 07:55:43;;;;;;;18.77;5.30;;;;;;;;;;5113332;28;20065;-73
2022/11/07 07:58:10;;;;;;;20.27;5.30;;;;;;;;;;5113682;28;20040;-73
2022/11/07 08:00:36;;;;;;;17.02;4.65;;;;;;;;;;5094527;28;20044;-72
2022/11/07 08:03:03;;;;;;;18.77;4.85;;;;;;;;;;5083540;28;20060;-73
2022/11/07 08:05:29;;;;;;;20.30;4.95;;;;;;;;;;5112436;28;20051;-73
2022/11/07 08:07:55;;;;;;;20.83;5.43;;;;;;;;;;5095902;28;20109;-73
2022/11/07 08:10:21;;;;;;;15.18;4.97;;;;;;;;;;5112203;28;20044;-72
2022/11/07 08:12:48;;;;;;;17.77;4.78;;;;;;;;;;5108980;28;20088;-73
2022/11/07 08:15:15;;;;;;;18.73;5.25;;;;;;;;;;5113073;28;20413;-73
2022/11/07 08:17:42;;;;;;;20.15;4.60;;;;;;;;;;5078224;28;20142;-73
2022/11/07 08:20:09;;;;;;;17.85;5.18;;;;;;;;;;5111251;28;20051;-73
2022/11/07 08:22:38;;;;;;;18.20;4.90;;;;;;;;;;5095330;28;20095;-73
2022/11/07 08:25:05;;;;;;;11.73;4.10;;;;;;;;;;5113337;28;20088;-73
2022/11/07 08:27:31;;;;;;;16.63;4.70;;;;;;;;;;5112450;28;20055;-73
2022/11/07 08:29:57;;;;;;;17.67;4.72;;;;;;;;;;5113183;28;20070;-73
2022/11/07 08:32:23;;;;;;;16.20;4.75;;;;;;;;;;5102526;28;20043;-72
2022/11/07 08:34:50;;;;;;;18.55;4.65;;;;;;;;;;5098040;28;20044;-74
2022/11/07 08:37:16;;;;;;;19.88;4.78;;;;;;;;;;5111195;28;20050;-72
2022/11/07 08:39:42;;;;;;;19.23;4.45;;;;;;;;;;5112952;28;20051;-73
2022/11/07 08:42:08;;;;;;;19.35;4.40;;;;;;;;;;5110452;28;20409;-72
2022/11/07 08:44:35;;;;;;;17.63;4.93;;;;;;;;;;5110185;28;20484;-73
2022/11/07 08:47:02;;;;;;;15.57;4.20;;;;;;;;;;5113105;28;20043;-73
2022/11/07 08:49:28;;;;;;;15.98;3.85;;;;;;;;;;5113005;28;20485;-70
2022/11/07 08:51:54;;;;;;;16.88;4.22;;;;;;;;;;5112920;28;20139;-69
2022/11/07 08:54:20;;;;;;;13.82;3.63;;;;;;;;;;5098206;28;20126;-69
2022/11/07 08:56:47;;;;;;;15.80;4.22;;;;;;;;;;5108329;28;20059;-69
2022/11/07 08:59:13;;;;;;;17.75;4.05;;;;;;;;;;5112634;28;20051;-70
2022/11/07 09:01:39;;;;;;;16.60;4.30;;;;;;;;;;5111239;28;20506;-70
2022/11/07 09:04:05;;;;;;;18.10;4.43;;;;;;;;;;5108401;28;20051;-69
2022/11/07 09:06:31;;;;;;;18.92;4.38;;;;;;;;;;5092205;28;20050;-70
2022/11/07 09:08:58;;;;;;;16.60;4.40;;;;;;;;;;5108421;28;20040;-70
2022/11/07 09:11:24;;;;;;;18.15;4.50;;;;;;;;;;5108163;28;20047;-73
2022/11/07 09:13:51;;;;;;;19.10;4.75;;;;;;;;;;5102538;28;20637;-73
2022/11/07 09:16:17;;;;;;;18.63;3.80;;;;;;;;;;5104453;28;20126;-73
2022/11/07 09:18:44;;;;;;;21.27;4.78;;;;;;;;;;5110189;28;20050;-74
2022/11/07 09:21:10;;;;;;;19.17;4.00;;;;;;;;;;5093712;28;20043;-73
2022/11/07 09:23:36;;;;;;;14.98;3.90;;;;;;;;;;5093083;28;20131;-72
2022/11/07 09:26:03;;;;;;;20.15;4.03;;;;;;;;;;5106748;28;20096;-72
2022/11/07 09:28:29;;;;;;;18.08;4.13;;;;;;;;;;5089950;28;20048;-72
2022/11/07 09:30:56;;;;;;;18.80;3.85;;;;;;;;;;5102803;28;20097;-73
2022/11/07 09:33:23;;;;;;;14.52;3.70;;;;;;;;;;5106757;28;20050;-73
2022/11/07 09:35:49;;;;;;;13.40;3.72;;;;;;;;;;5107151;28;20458;-74
2022/11/07 09:38:16;;;;;;;15.27;3.53;;;;;;;;;;5110284;28;20493;-73
2022/11/07 09:40:44;;;;;;;14.20;4.00;;;;;;;;;;5104144;28;20465;-72
2022/11/07 09:43:10;;;;;;;14.82;3.88;;;;;;;;;;5105073;28;20071;-73
2022/11/07 09:45:49;;;;;;;20.27;4.10;;;;;;;;;;5089545;28;20104;-73
2022/11/07 09:48:19;;;;;;;16.40;3.75;;;;;;;;;;5103200;28;20044;-72
2022/11/07 09:50:48;;;;;;;15.23;4.00;;;;;;;;;;5106447;28;20511;-73
2022/11/07 09:53:35;;;;;;;17.52;3.83;;;;;;;;;;5105665;28;20074;-72
2022/11/07 09:56:02;;;;;;;17.33;5.03;;;;;;;;;;5102578;28;20040;-72
2022/11/07 09:58:37;;;;;;;18.33;4.45;;;;;;;;;;5106215;28;20047;-72
2022/11/07 10:01:04;;;;;;;17.48;4.53;;;;;;;;;;5104372;28;20031;-72
2022/11/07 10:03:31;;;;;;;15.80;4.00;;;;;;;;;;5104293;28;20451;-72
2022/11/07 10:06:15;;;;;;;15.82;3.83;;;;;;;;;;5105900;28;20062;-72
2022/11/07 10:08:47;;;;;;;14.88;3.70;;;;;;;;;;5105734;28;20055;-73
2022/11/07 10:11:22;;;;;;;15.70;4.10;;;;;;;;;;5109555;28;20067;-73
2022/11/07 10:14:01;;;;;;;15.13;3.75;;;;;;;;;;5107432;28;20115;-72
2022/11/07 10:16:46;;;;;;;14.25;3.83;;;;;;;;;;5110640;28;20050;-73
2022/11/07 10:19:12;;;;;;;16.50;3.90;;;;;;;;;;5109098;28;20408;-73
2022/11/07 10:21:38;;;;;;;17.33;4.25;;;;;;;;;;5107460;28;20047;-72
2022/11/07 10:24:10;;;;;;;13.57;3.90;;;;;;;;;;5108819;28;20046;-72
2022/11/07 10:26:37;;;;;;;15.10;4.38;;;;;;;;;;5107651;28;20044;-72
2022/11/07 10:29:09;;;;;;;17.05;4.43;;;;;;;;;;5107214;28;20039;-73
2022/11/07 10:31:39;;;;;;;16.88;4.38;;;;;;;;;;5088461;28;20089;-74
2022/11/07 10:34:19;;;;;;;20.17;4.20;;;;;;;;;;5109686;28;20884;-72
2022/11/07 10:36:45;;;;;;;17.92;4.53;;;;;;;;;;5106181;28;20047;-73
2022/11/07 10:39:14;;;;;;;20.02;4.68;;;;;;;;;;5111553;28;20052;-73
2022/11/07 10:41:41;;;;;;;17.48;4.10;;;;;;;;;;5111411;28;20047;-73
2022/11/07 10:44:11;;;;;;;16.80;4.03;;;;;;;;;;5107227;28;20052;-73
2022/11/07 10:46:38;;;;;;;15.85;3.72;;;;;;;;;;5111191;28;20035;-73
2022/11/07 10:49:17;;;;;;;21.45;4.68;;;;;;;;;;5110756;28;20448;-72
2022/11/07 10:51:43;;;;;;;15.48;3.50;;;;;;;;;;5113356;28;20070;-73
2022/11/07 10:54:20;;;;;;;12.38;3.60;;;;;;;;;;5110200;28;20044;-73
2022/11/07 10:56:49;;;;;;;25.50;4.55;;;;;;;;;;5109123;28;20061;-72
2022/11/07 10:59:24;;;;;;;17.35;4.35;;;;;;;;;;5112528;28;20047;-72
2022/11/07 11:01:52;;;;;;;14.77;3.50;;;;;;;;;;5112495;28;20090;-73
2022/11/07 11:04:28;;;;;;;19.00;3.90;;;;;;;;;;5113405;28;20055;-72
2022/11/07 11:07:02;;;;;;;18.08;3.95;;;;;;;;;;5106885;28;20032;-72
2022/11/07 11:09:30;;;;;;;23.67;4.80;;;;;;;;;;5110161;28;20107;-70
2022/11/07 11:11:56;;;;;;;16.33;3.90;;;;;;;;;;5110125;28;20461;-71
2022/11/07 11:14:22;;;;;;;15.75;4.07;;;;;;;;;;5110078;28;20048;-71
2022/11/07 11:16:56;;;;;;;12.75;3.42;;;;;;;;;;5110819;28;20346;-71
2022/11/07 11:19:24;;;;;;;15.57;3.65;;;;;;;;;;5110761;28;20044;-71
2022/11/07 11:21:51;;;;;;;16.20;4.10;;;;;;;;;;5108767;28;20100;-71
2022/11/07 11:24:30;;;;;;;21.98;4.35;;;;;;;;;;5110319;28;20044;-71
2022/11/07 11:27:02;;;;;;;19.38;3.85;;;;;;;;;;5110008;28;20043;-71
2022/11/07 11:29:36;;;;;;;24.52;4.60;;;;;;;;;;5109493;28;20062;-72
2022/11/07 11:32:03;;;;;;;22.02;4.63;;;;;;;;;;5108799;28;20043;-71
2022/11/07 11:34:48;;;;;;;29.23;6.00;;;;;;;;;;5108058;28;20040;-70
2022/11/07 11:37:18;;;;;;;21.42;5.28;;;;;;;;;;5090239;28;20051;-72
2022/11/07 11:39:47;;;;;;;15.60;4.05;;;;;;;;;;5110134;28;20044;-72
2022/11/07 11:42:27;;;;;;;20.02;3.63;;;;;;;;;;5113257;28;20047;-73
2022/11/07 11:44:55;;;;;;;21.33;5.00;;;;;;;;;;5094947;28;20056;-73
2022/11/07 11:47:26;;;;;;;16.83;4.50;;;;;;;;;;5112090;28;20044;-73
2022/11/07 11:49:54;;;;;;;13.40;3.30;;;;;;;;;;5113396;28;20096;-73
2022/11/07 11:52:21;;;;;;;17.00;3.78;;;;;;;;;;5112200;28;20047;-73
2022/11/07 11:54:50;;;;;;;17.42;4.28;;;;;;;;;;5111631;28;20078;-73
2022/11/07 11:57:31;;;;;;;13.90;3.88;;;;;;;;;;5109603;28;20059;-73
2022/11/07 11:59:57;;;;;;;;;;;;;;;;;;5085070;28;20405;-74
2022/11/07 12:02:26;;;;;;;13.25;3.42;;;;;;;;;;5109321;28;19920;-73
2022/11/07 12:05:01;;;;;;;15.23;4.07;;;;;;;;;;5092163;28;20401;-72
2022/11/07 12:07:44;;;;;;;17.55;5.03;;;;;;;;;;5111265;28;20039;-73
2022/11/07 12:10:24;;;;;;;19.05;4.45;;;;;;;;;;5110542;28;21260;-73
2022/11/07 12:12:50;;;;;;;16.63;4.35;;;;;;;;;;5108375;28;20073;-73
2022/11/07 12:15:23;;;;;;;20.00;5.43;;;;;;;;;;5110326;28;20043;-73
2022/11/07 12:17:58;;;;;;;16.42;4.90;;;;;;;;;;5113302;28;20074;-73
2022/11/07 12:20:31;;;;;;;18.88;4.75;;;;;;;;;;5111767;28;20063;-73
2022/11/07 12:23:09;;;;;;;15.25;4.90;;;;;;;;;;5107451;28;20044;-74
2022/11/07 12:25:35;;;;;;;10.75;3.40;;;;;;;;;;5110847;28;20409;-73
2022/11/07 12:28:20;;;;;;;23.52;4.55;;;;;;;;;;5104673;28;20092;-73
2022/11/07 12:30:50;;;;;;;16.45;4.60;;;;;;;;;;5109321;28;20517;-73
2022/11/07 12:33:32;;;;;;;17.73;4.72;;;;;;;;;;5112053;28;20088;-73
2022/11/07 12:36:03;;;;;;;13.65;4.30;;;;;;;;;;5094637;28;20087;-74
2022/11/07 12:38:48;;;;;;;60.42;6.75;;;;;;;;;;5110641;28;20051;-69
2022/11/07 12:41:16;;;;;;;26.55;5.13;;;;;;;;;;5110569;28;20050;-69
2022/11/07 12:43:42;;;;;;;17.33;4.35;;;;;;;;;;5108154;28;20067;-69
2022/11/07 12:46:18;;;;;;;16.30;4.30;;;;;;;;;;5111585;28;20525;-69
2022/11/07 12:48:59;;;;;;;13.50;3.90;;;;;;;;;;5110877;28;20495;-69
2022/11/07 12:51:34;;;;;;;12.82;3.47;;;;;;;;;;5108669;28;20036;-69
2022/11/07 12:54:00;;;;;;;20.17;4.35;;;;;;;;;;5109213;27;20409;-68
2022/11/07 12:56:35;;;;;;;19.38;3.53;;;;;;;;;;5110211;27;20509;-69
2022/11/07 12:59:03;;;;;;;12.68;4.20;;;;;;;;;;5107161;28;20043;-68
2022/11/07 13:01:41;;;;;;;14.13;3.90;;;;;;;;;;5110007;28;20180;-68
2022/11/07 13:04:07;;;;;;;16.23;4.70;;;;;;;;;;5109292;28;20052;-69
2022/11/07 13:06:37;;;;;;;15.05;4.75;;;;;;;;;;5089944;28;20043;-69
2022/11/07 13:09:12;;;;;;;22.70;8.27;;;;;;;;;;5111992;27;20036;-69
2022/11/07 13:11:54;;;;;;;17.30;5.60;;;;;;;;;;5090613;28;20443;-68
2022/11/07 13:14:40;;;;;;;14.52;4.55;;;;;;;;;;5101338;27;20047;-69
2022/11/07 13:17:06;;;;;;;14.73;3.90;;;;;;;;;;5112670;28;20054;-74
2022/11/07 13:19:37;;;;;;;14.13;3.67;;;;;;;;;;5110566;28;20044;-74
2022/11/07 13:22:03;;;;;;;10.80;3.38;;;;;;;;;;5111107;28;20092;-73
2022/11/07 13:24:29;;;;;;;16.45;4.00;;;;;;;;;;5112525;28;20043;-74
2022/11/07 13:26:56;;;;;;;15.07;3.97;;;;;;;;;;5107635;28;20071;-74
2022/11/07 13:29:23;;;;;;;13.15;4.30;;;;;;;;;;5110085;28;20406;-73
2022/11/07 13:32:12;;;;;;;11.68;3.45;;;;;;;;;;5110921;28;20051;-74
2022/11/07 13:34:41;;;;;;;14.85;4.05;;;;;;;;;;5100393;28;20055;-73
2022/11/07 13:37:12;;;;;;;9.80;3.30;;;;;;;;;;5109776;28;20058;-73
2022/11/07 13:39:38;;;;;;;13.98;3.60;;;;;;;;;;5112607;28;20048;-73
2022/11/07 13:42:05;;;;;;;12.93;3.38;;;;;;;;;;5100231;28;20036;-73
2022/11/07 13:44:33;;;;;;;16.15;4.63;;;;;;;;;;5103867;28;20497;-73
2022/11/07 13:47:02;;;;;;;13.63;4.38;;;;;;;;;;5108012;28;20102;-73
2022/11/07 13:49:38;;;;;;;14.88;3.55;;;;;;;;;;5110403;28;20078;-73
2022/11/07 13:52:09;;;;;;;14.75;3.92;;;;;;;;;;5103608;28;20046;-73
2022/11/07 13:54:47;;;;;;;17.85;3.83;;;;;;;;;;5090357;28;20542;-73
2022/11/07 13:57:15;;;;;;;14.02;3.55;;;;;;;;;;5109912;28;20044;-73
2022/11/07 13:59:51;;;;;;;14.48;3.88;;;;;;;;;;5110794;28;20060;-73
2022/11/07 14:02:21;;;;;;;14.00;3.70;;;;;;;;;;5110948;28;20060;-73
2022/11/07 14:04:49;;;;;;;13.98;3.85;;;;;;;;;;5104902;28;20039;-73
2022/11/07 14:07:15;;;;;;;13.80;3.53;;;;;;;;;;5071609;28;20046;-74
2022/11/07 14:09:42;;;;;;;15.75;3.95;;;;;;;;;;5108397;28;20092;-74
2022/11/07 14:12:16;;;;;;;13.32;3.67;;;;;;;;;;5114208;28;20040;-73
2022/11/07 14:14:42;;;;;;;11.75;3.28;;;;;;;;;;5096105;28;20040;-74
2022/11/07 14:17:17;;;;;;;15.45;3.55;;;;;;;;;;5111074;28;20450;-74
2022/11/07 14:19:43;;;;;;;15.23;3.83;;;;;;;;;;5109630;28;20397;-74
2022/11/07 14:22:22;;;;;;;20.58;4.10;;;;;;;;;;5112025;28;20055;-74
2022/11/07 14:24:56;;;;;;;11.85;3.67;;;;;;;;;;5110923;28;20071;-74
2022/11/07 14:27:23;;;;;;;16.05;4.00;;;;;;;;;;5105169;27;20111;-73
2022/11/07 14:29:57;;;;;;;14.05;3.60;;;;;;;;;;5113306;28;20075;-74
2022/11/07 14:32:23;;;;;;;14.98;4.22;;;;;;;;;;5111738;28;20127;-74
2022/11/07 14:34:50;;;;;;;13.95;4.10;;;;;;;;;;5077936;28;20048;-73
2022/11/07 14:37:17;;;;;;;15.75;4.20;;;;;;;;;;5113437;28;20417;-74
2022/11/07 14:39:44;;;;;;;15.13;3.85;;;;;;;;;;5115061;28;20554;-74
2022/11/07 14:42:12;;;;;;;16.70;4.90;;;;;;;;;;5113756;28;20389;-74
2022/11/07 14:44:39;;;;;;;17.60;4.60;;;;;;;;;;5113609;28;20088;-74
2022/11/07 14:47:09;;;;;;;15.55;4.57;;;;;;;;;;5114516;28;20044;-74
2022/11/07 14:49:40;;;;;;;16.10;4.97;;;;;;;;;;5115482;28;20046;-74